Time;durP1;ratioP1;P1;durP2;ratioP2;P2;SDS_P1;SDS_P2;PMS_P1;PMS_P2;Temp;Humidity;BMP_temperature;BMP_pressure;BME280_temperature;BME280_humidity;BME280_pressure;Samples;Min_cycle;Max_cycle;Signal;HPM_P1;HPM_P2
2022/01/15 00:00:19;;;;;;;3.40;2.25;;;0.00;99.90;;;;;;5134817;27;20047;-72
2022/01/15 00:02:45;;;;;;;8.00;3.93;;;0.00;99.90;;;;;;5133639;27;20423;-71
2022/01/15 00:05:13;;;;;;;9.73;3.70;;;0.00;99.90;;;;;;5133784;27;20120;-73
2022/01/15 00:07:41;;;;;;;5.33;3.23;;;0.00;99.90;;;;;;5134231;27;20092;-75
2022/01/15 00:10:11;;;;;;;3.87;2.47;;;0.00;99.90;;;;;;5134557;27;20491;-76
2022/01/15 00:12:40;;;;;;;9.20;4.37;;;0.00;99.90;;;;;;5134005;27;20187;-73
2022/01/15 00:15:14;;;;;;;15.07;5.47;;;0.00;99.90;;;;;;5133423;27;20146;-73
2022/01/15 00:17:47;;;;;;;15.80;3.47;;;0.00;99.90;;;;;;5133853;27;20087;-75
2022/01/15 00:20:16;;;;;;;12.83;3.40;;;0.10;99.90;;;;;;5133983;27;20096;-75
2022/01/15 00:22:43;;;;;;;10.03;4.10;;;0.10;99.90;;;;;;5134526;27;20055;-76
2022/01/15 00:25:11;;;;;;;5.80;1.97;;;0.10;99.90;;;;;;5133529;27;20043;-78
2022/01/15 00:27:37;;;;;;;9.50;3.20;;;0.10;99.90;;;;;;5133288;27;20047;-76
2022/01/15 00:30:05;;;;;;;6.83;2.57;;;0.10;99.90;;;;;;5133543;27;20100;-75
2022/01/15 00:32:33;;;;;;;9.10;3.83;;;0.10;99.90;;;;;;5133759;27;20101;-77
2022/01/15 00:35:00;;;;;;;7.90;3.17;;;0.10;99.90;;;;;;5132818;27;20050;-76
2022/01/15 00:37:30;;;;;;;21.63;3.97;;;0.10;99.90;;;;;;5133499;27;20495;-75
2022/01/15 00:39:57;;;;;;;9.70;3.93;;;0.00;99.90;;;;;;5134087;27;20054;-75
2022/01/15 00:42:24;;;;;;;10.30;5.93;;;-0.10;99.90;;;;;;5133509;27;20072;-76
2022/01/15 00:44:51;;;;;;;14.10;2.77;;;-0.10;99.90;;;;;;5133008;27;20050;-77
2022/01/15 00:47:18;;;;;;;5.17;2.47;;;-0.10;99.90;;;;;;5133427;27;20065;-78
2022/01/15 00:49:46;;;;;;;8.53;3.70;;;-0.10;99.90;;;;;;5133123;27;20043;-77
2022/01/15 00:52:12;;;;;;;6.03;2.77;;;-0.10;99.90;;;;;;5133398;27;20422;-78
2022/01/15 00:54:39;;;;;;;10.83;3.70;;;-0.10;99.90;;;;;;5132934;27;20047;-77
2022/01/15 00:57:06;;;;;;;7.47;3.90;;;-0.10;99.90;;;;;;5133497;27;20107;-76
2022/01/15 00:59:32;;;;;;;10.17;3.60;;;-0.20;99.90;;;;;;5133302;27;20047;-75
2022/01/15 01:01:59;;;;;;;8.93;2.80;;;-0.20;99.90;;;;;;5132074;27;20563;-77
2022/01/15 01:04:26;;;;;;;17.83;4.50;;;-0.20;99.90;;;;;;5132357;27;20043;-79
2022/01/15 01:06:54;;;;;;;8.10;3.87;;;-0.20;99.90;;;;;;5132784;27;20096;-76
2022/01/15 01:09:22;;;;;;;7.50;2.80;;;-0.10;99.90;;;;;;5132755;27;20088;-76
2022/01/15 01:11:55;;;;;;;8.07;2.83;;;-0.10;99.90;;;;;;5133086;27;20462;-77
2022/01/15 01:20:08;;;;;;;6.50;2.20;;;-0.10;99.90;;;;;;5132782;27;20584;-77
2022/01/15 01:22:57;;;;;;;11.13;2.63;;;-0.10;99.90;;;;;;5132808;27;20478;-75
2022/01/15 01:25:29;;;;;;;4.83;2.80;;;-0.10;99.90;;;;;;5132167;27;20059;-76
2022/01/15 01:28:03;;;;;;;;;;;0.00;99.90;;;;;;5132986;27;20065;-73
2022/01/15 01:30:35;;;;;;;9.57;3.70;;;-0.10;99.90;;;;;;5132797;28;20015;-75
2022/01/15 01:33:15;;;;;;;15.73;3.67;;;-0.20;99.90;;;;;;5132807;27;20130;-75
2022/01/15 01:35:45;;;;;;;13.20;4.50;;;-0.10;99.90;;;;;;5132002;28;20061;-75
2022/01/15 01:38:19;;;;;;;14.07;3.80;;;-0.10;99.90;;;;;;5132693;27;20043;-77
2022/01/15 01:40:49;;;;;;;8.97;2.47;;;-0.10;99.90;;;;;;5132780;27;20047;-77
2022/01/15 01:43:42;;;;;;;20.77;3.03;;;-0.10;99.90;;;;;;5132743;28;20078;-76
2022/01/15 01:48:57;;;;;;;9.77;3.17;;;-0.20;99.90;;;;;;5125454;27;20046;-78
2022/01/15 01:51:26;;;;;;;5.43;2.37;;;-0.20;99.90;;;;;;5132761;27;20638;-75
2022/01/15 01:53:54;;;;;;;5.70;2.13;;;-0.20;99.90;;;;;;5132453;27;20047;-76
2022/01/15 01:56:21;;;;;;;10.40;2.67;;;-0.20;99.90;;;;;;5132207;27;20071;-76
2022/01/15 01:58:48;;;;;;;11.97;2.43;;;-0.20;99.90;;;;;;5132391;28;20096;-77
2022/01/15 02:01:14;;;;;;;7.80;2.93;;;-0.20;99.90;;;;;;5132342;28;20096;-76
2022/01/15 02:03:41;;;;;;;6.00;2.63;;;-0.20;99.90;;;;;;5132115;28;20043;-75
2022/01/15 02:06:09;;;;;;;20.53;3.87;;;-0.30;99.90;;;;;;5131997;27;20046;-77
2022/01/15 02:08:37;;;;;;;7.30;3.43;;;-0.40;99.90;;;;;;5132482;27;20040;-75
2022/01/15 02:11:06;;;;;;;8.97;3.13;;;-0.30;99.90;;;;;;5132304;28;20051;-75
2022/01/15 02:13:34;;;;;;;6.57;3.07;;;-0.40;99.90;;;;;;5133735;27;20043;-76
2022/01/15 02:16:01;;;;;;;9.13;2.80;;;-0.50;99.90;;;;;;5135342;27;20059;-74
2022/01/15 02:18:28;;;;;;;14.20;3.20;;;-0.60;99.90;;;;;;5136338;27;20047;-75
2022/01/15 02:23:32;;;;;;;9.57;3.07;;;-0.60;99.90;;;;;;5136116;27;20047;-77
2022/01/15 02:23:51;;;;;;;7.33;2.07;;;-0.50;99.90;;;;;;5135500;27;20125;-76
2022/01/15 02:26:21;;;;;;;2.13;1.40;;;-0.50;99.90;;;;;;5135216;27;20130;-77
2022/01/15 02:28:53;;;;;;;6.10;3.17;;;-0.50;99.90;;;;;;5136122;27;20427;-76
2022/01/15 02:31:21;;;;;;;14.10;4.93;;;-0.50;99.90;;;;;;5135967;27;20361;-77
2022/01/15 02:33:50;;;;;;;5.37;2.37;;;-0.40;99.90;;;;;;5136135;27;20166;-77
2022/01/15 02:36:21;;;;;;;6.90;2.77;;;-0.50;99.90;;;;;;5133670;27;20490;-76
2022/01/15 02:38:48;;;;;;;13.00;3.38;;;-0.50;99.90;;;;;;5136015;27;20047;-77
2022/01/15 02:41:15;;;;;;;4.43;2.00;;;-0.60;99.90;;;;;;5135803;27;20040;-76
2022/01/15 02:43:42;;;;;;;7.20;2.50;;;-0.60;99.90;;;;;;5135821;27;20101;-77
2022/01/15 02:46:22;;;;;;;11.83;3.60;;;-0.70;99.90;;;;;;5135159;27;20092;-76
2022/01/15 02:48:52;;;;;;;15.97;3.87;;;-0.70;99.90;;;;;;5136033;27;20057;-76
2022/01/15 02:51:21;;;;;;;11.20;4.03;;;-0.70;99.90;;;;;;5135543;27;20047;-77
2022/01/15 02:53:54;;;;;;;14.80;3.53;;;-0.80;99.90;;;;;;5136288;27;20479;-77
2022/01/15 02:56:22;;;;;;;6.30;2.87;;;-0.90;99.90;;;;;;5135832;27;20043;-76
2022/01/15 02:58:48;;;;;;;4.53;3.43;;;-0.90;99.90;;;;;;5136301;27;20100;-76
2022/01/15 03:01:15;;;;;;;7.47;2.70;;;-0.90;99.90;;;;;;5136127;27;20075;-77
2022/01/15 03:03:42;;;;;;;6.47;3.53;;;-0.90;99.90;;;;;;5135057;27;20043;-78
2022/01/15 03:06:10;;;;;;;5.50;2.23;;;-0.90;99.90;;;;;;5134480;27;20119;-77
2022/01/15 03:08:39;;;;;;;9.13;2.17;;;-0.90;99.90;;;;;;5135458;27;20117;-76
2022/01/15 03:11:07;;;;;;;7.00;3.73;;;-0.90;99.90;;;;;;5135135;27;20047;-77
2022/01/15 03:13:33;;;;;;;7.33;3.90;;;-0.90;99.90;;;;;;5135197;27;20043;-77
2022/01/15 03:16:00;;;;;;;9.87;4.43;;;-1.00;99.90;;;;;;5134595;27;20039;-79
2022/01/15 03:18:27;;;;;;;19.40;2.50;;;-1.00;99.90;;;;;;5134884;27;20100;-75
2022/01/15 03:20:53;;;;;;;6.07;2.77;;;-1.00;99.90;;;;;;5135194;27;20099;-76
2022/01/15 03:23:20;;;;;;;8.97;3.33;;;-1.10;99.90;;;;;;5134851;27;20077;-75
2022/01/15 03:25:48;;;;;;;7.50;4.23;;;-1.10;99.90;;;;;;5133607;27;20039;-74
2022/01/15 03:28:15;;;;;;;12.77;2.60;;;-1.10;99.90;;;;;;5135065;27;20095;-75
2022/01/15 03:30:41;;;;;;;5.37;2.67;;;-1.20;99.90;;;;;;5135775;27;20445;-77
2022/01/15 03:33:08;;;;;;;9.10;2.93;;;-1.10;99.90;;;;;;5136080;27;20043;-74
2022/01/15 03:35:36;;;;;;;14.57;3.47;;;-1.10;99.90;;;;;;5134920;27;20496;-76
2022/01/15 03:38:03;;;;;;;5.43;2.50;;;-1.00;99.90;;;;;;5135474;27;20104;-76
2022/01/15 03:40:30;;;;;;;11.03;2.00;;;-0.90;99.90;;;;;;5134826;27;20043;-75
2022/01/15 03:42:58;;;;;;;11.83;4.47;;;-0.80;99.90;;;;;;5134788;27;20092;-77
2022/01/15 03:45:25;;;;;;;10.57;2.47;;;-0.80;99.90;;;;;;5133729;27;20088;-78
2022/01/15 03:47:52;;;;;;;7.93;1.60;;;-0.80;99.90;;;;;;5134867;27;20100;-76
2022/01/15 03:50:20;;;;;;;8.87;2.47;;;-0.90;99.90;;;;;;5134559;27;20413;-77
2022/01/15 03:52:47;;;;;;;4.17;2.63;;;-0.90;99.90;;;;;;5134493;27;20047;-76
2022/01/15 03:55:14;;;;;;;3.67;2.50;;;-0.90;99.90;;;;;;5133699;27;20043;-77
2022/01/15 03:57:41;;;;;;;5.73;3.07;;;-1.00;99.90;;;;;;5134336;27;20043;-77
2022/01/15 04:00:14;;;;;;;3.70;2.40;;;-1.10;99.90;;;;;;5134067;27;20047;-79
2022/01/15 04:02:41;;;;;;;5.00;2.70;;;-0.90;99.90;;;;;;5134085;27;20511;-76
2022/01/15 04:05:09;;;;;;;4.67;2.30;;;-0.90;99.90;;;;;;5133749;27;20051;-75
2022/01/15 04:07:35;;;;;;;14.00;4.47;;;-1.00;99.90;;;;;;5134233;27;20488;-75
2022/01/15 04:10:02;;;;;;;6.17;1.50;;;-1.00;99.90;;;;;;5135749;27;20069;-75
2022/01/15 04:12:29;;;;;;;9.47;2.50;;;-1.10;99.90;;;;;;5135788;27;20047;-75
2022/01/15 04:14:56;;;;;;;4.07;2.57;;;-1.20;99.90;;;;;;5134851;27;20092;-75
2022/01/15 04:17:25;;;;;;;7.97;2.40;;;-1.30;99.90;;;;;;5134492;27;20468;-74
2022/01/15 04:19:51;;;;;;;10.70;2.10;;;-1.30;99.90;;;;;;5134713;27;20499;-74
2022/01/15 04:22:18;;;;;;;1.63;1.53;;;-1.30;99.90;;;;;;5134568;27;20051;-74
2022/01/15 04:24:45;;;;;;;11.90;2.63;;;-1.30;99.90;;;;;;5133878;27;20051;-73
2022/01/15 04:27:12;;;;;;;10.37;2.13;;;-1.30;99.90;;;;;;5134686;27;20076;-74
2022/01/15 04:29:38;;;;;;;10.70;3.07;;;-1.20;99.90;;;;;;5134732;27;20039;-74
2022/01/15 04:32:05;;;;;;;11.33;2.83;;;-1.30;99.90;;;;;;5133538;27;20076;-75
2022/01/15 04:34:33;;;;;;;16.53;3.40;;;-1.40;99.90;;;;;;5133044;27;20043;-74
2022/01/15 04:37:06;;;;;;;17.20;4.27;;;-1.40;99.90;;;;;;5133355;27;20046;-76
2022/01/15 04:39:33;;;;;;;10.37;4.37;;;-1.40;99.90;;;;;;5133337;27;20047;-74
2022/01/15 04:41:59;;;;;;;4.90;2.30;;;-1.30;99.90;;;;;;5133539;27;20104;-75
2022/01/15 04:44:26;;;;;;;5.67;2.03;;;-1.20;99.90;;;;;;5132846;27;20046;-77
2022/01/15 04:46:56;;;;;;;6.73;2.13;;;-1.20;99.90;;;;;;5133407;27;20104;-76
2022/01/15 04:49:22;;;;;;;4.13;2.33;;;-1.20;99.90;;;;;;5133441;27;20043;-77
2022/01/15 04:51:50;;;;;;;12.20;3.40;;;-1.10;99.90;;;;;;5133135;27;20042;-76
2022/01/15 04:54:17;;;;;;;6.27;2.77;;;-1.10;99.90;;;;;;5132606;27;20043;-76
2022/01/15 04:56:43;;;;;;;5.53;3.17;;;-1.10;99.90;;;;;;5133102;27;20483;-75
2022/01/15 04:59:11;;;;;;;4.03;2.03;;;-1.30;99.90;;;;;;5133276;27;20047;-75
2022/01/15 05:01:38;;;;;;;2.57;2.20;;;-1.30;99.90;;;;;;5132869;27;20490;-74
2022/01/15 05:04:05;;;;;;;3.10;2.23;;;-1.30;99.90;;;;;;5132338;27;20051;-75
2022/01/15 05:06:32;;;;;;;12.37;2.30;;;-1.30;99.90;;;;;;5132869;27;20407;-76
2022/01/15 05:09:05;;;;;;;6.43;2.30;;;-1.30;99.90;;;;;;5132830;27;20068;-77
2022/01/15 05:11:43;;;;;;;17.23;3.80;;;-1.40;99.90;;;;;;5132930;27;20164;-75
2022/01/15 05:14:11;;;;;;;8.30;2.83;;;-1.40;99.90;;;;;;5132606;27;20039;-75
2022/01/15 05:16:37;;;;;;;15.20;3.40;;;-1.40;99.90;;;;;;5132737;27;20044;-75
2022/01/15 05:19:04;;;;;;;8.27;3.27;;;-1.30;99.90;;;;;;5132916;27;20105;-76
2022/01/15 05:21:31;;;;;;;20.67;2.77;;;-1.20;99.90;;;;;;5132629;27;20091;-75
2022/01/15 05:23:58;;;;;;;13.33;3.67;;;-1.20;99.90;;;;;;5132478;27;20499;-76
2022/01/15 05:26:26;;;;;;;9.97;2.90;;;-1.00;99.90;;;;;;5132461;27;20050;-77
2022/01/15 05:28:53;;;;;;;9.93;4.40;;;-1.00;99.90;;;;;;5132796;27;20039;-77
2022/01/15 05:31:19;;;;;;;4.40;3.47;;;-1.00;99.90;;;;;;5132606;27;20043;-76
2022/01/15 05:33:46;;;;;;;11.67;4.70;;;-0.90;99.90;;;;;;5132580;27;20047;-77
2022/01/15 05:36:12;;;;;;;9.90;2.70;;;-0.90;99.90;;;;;;5132435;27;20043;-77
2022/01/15 05:38:39;;;;;;;6.27;3.60;;;-0.80;99.90;;;;;;5132938;27;20043;-77
2022/01/15 05:41:06;;;;;;;13.33;3.93;;;-0.80;99.90;;;;;;5132978;27;20069;-76
2022/01/15 05:43:34;;;;;;;10.37;3.70;;;-0.80;99.90;;;;;;5132421;27;20096;-76
2022/01/15 05:46:00;;;;;;;3.83;2.17;;;-0.70;99.90;;;;;;5132370;27;20491;-75
2022/01/15 05:48:27;;;;;;;11.80;4.50;;;-0.70;99.90;;;;;;5133712;27;20047;-75
2022/01/15 05:50:54;;;;;;;11.27;3.57;;;-0.60;99.90;;;;;;5136816;27;20051;-76
2022/01/15 05:53:20;;;;;;;15.17;2.80;;;-0.40;99.90;;;;;;5136786;27;20043;-76
2022/01/15 05:55:47;;;;;;;9.67;4.03;;;-0.30;99.90;;;;;;5135891;27;20548;-76
2022/01/15 05:58:14;;;;;;;18.27;5.20;;;-0.20;99.90;;;;;;5136572;27;20073;-75
2022/01/15 06:00:42;;;;;;;35.03;5.90;;;-0.10;99.90;;;;;;5136553;27;20088;-75
2022/01/15 06:03:08;;;;;;;9.07;3.73;;;0.00;99.90;;;;;;5136380;27;20099;-77
2022/01/15 06:05:35;;;;;;;13.03;5.90;;;0.00;99.90;;;;;;5135961;27;20088;-76
2022/01/15 06:08:01;;;;;;;13.63;4.17;;;0.10;99.90;;;;;;5136376;27;20096;-75
2022/01/15 06:10:28;;;;;;;14.03;5.00;;;0.20;99.90;;;;;;5136538;27;20090;-75
2022/01/15 06:12:55;;;;;;;32.13;5.87;;;0.20;99.90;;;;;;5136223;27;20299;-75
2022/01/15 06:15:22;;;;;;;8.33;5.07;;;0.20;99.90;;;;;;5135729;27;20047;-76
2022/01/15 06:17:50;;;;;;;17.00;6.67;;;0.20;99.90;;;;;;5135863;27;20502;-76
2022/01/15 06:20:16;;;;;;;10.87;5.10;;;0.20;99.90;;;;;;5136372;27;20043;-77
2022/01/15 06:22:43;;;;;;;12.13;4.23;;;0.30;99.90;;;;;;5136093;27;20054;-76
2022/01/15 06:25:11;;;;;;;11.57;4.90;;;0.30;99.90;;;;;;5135270;27;20548;-76
2022/01/15 06:27:37;;;;;;;18.10;6.47;;;0.30;99.90;;;;;;5136156;27;20076;-77
2022/01/15 06:30:06;;;;;;;22.87;7.07;;;0.40;99.90;;;;;;5135743;27;20071;-75
2022/01/15 06:32:36;;;;;;;22.13;8.20;;;0.40;99.90;;;;;;5136007;27;20448;-76
2022/01/15 06:35:05;;;;;;;17.70;6.13;;;0.40;99.90;;;;;;5135837;27;20088;-74
2022/01/15 06:37:32;;;;;;;16.60;5.77;;;0.50;99.90;;;;;;5135991;27;20048;-78
2022/01/15 06:39:58;;;;;;;10.50;6.37;;;0.50;99.90;;;;;;5135809;27;20487;-76
2022/01/15 06:42:25;;;;;;;30.23;6.17;;;0.60;99.90;;;;;;5135655;27;20088;-77
2022/01/15 06:44:51;;;;;;;23.27;11.10;;;0.60;99.90;;;;;;5134849;27;20414;-78
2022/01/15 06:47:18;;;;;;;19.37;7.53;;;0.60;99.90;;;;;;5135470;27;20051;-76
2022/01/15 06:49:45;;;;;;;25.27;9.27;;;0.60;99.90;;;;;;5135862;27;20043;-77
2022/01/15 06:52:13;;;;;;;16.17;8.03;;;0.60;99.90;;;;;;5135505;27;20043;-76
2022/01/15 06:54:39;;;;;;;27.53;10.70;;;0.60;99.90;;;;;;5135335;27;20047;-77
2022/01/15 06:57:06;;;;;;;29.83;10.03;;;0.60;99.90;;;;;;5135247;27;20050;-76
2022/01/15 06:59:33;;;;;;;16.40;7.47;;;0.60;99.90;;;;;;5134252;27;20487;-75
2022/01/15 07:01:59;;;;;;;26.77;8.27;;;0.60;99.90;;;;;;5135292;27;20043;-75
2022/01/15 07:04:26;;;;;;;23.93;8.53;;;0.60;99.90;;;;;;5134432;27;20072;-74
2022/01/15 07:06:52;;;;;;;20.47;8.27;;;0.60;99.90;;;;;;5135174;27;20120;-76
2022/01/15 07:09:20;;;;;;;31.73;8.70;;;0.70;99.90;;;;;;5135169;27;20042;-74
2022/01/15 07:11:47;;;;;;;25.17;8.77;;;0.60;99.90;;;;;;5135025;27;20039;-74
2022/01/15 07:14:13;;;;;;;17.50;7.77;;;0.60;99.90;;;;;;5134631;27;20551;-76
2022/01/15 07:16:40;;;;;;;20.80;8.67;;;0.60;99.90;;;;;;5135103;27;20456;-75
2022/01/15 07:19:06;;;;;;;31.00;7.30;;;0.70;99.90;;;;;;5135094;27;20096;-75
2022/01/15 07:24:14;;;;;;;20.30;7.80;;;0.80;99.90;;;;;;5134207;27;20051;-74
2022/01/15 07:26:42;;;;;;;19.40;6.77;;;0.90;99.90;;;;;;5134918;27;20047;-75
2022/01/15 07:29:14;;;;;;;20.50;8.53;;;0.90;99.90;;;;;;5134622;27;20058;-75
2022/01/15 07:31:42;;;;;;;21.55;7.45;;;1.00;99.90;;;;;;5135017;27;20043;-75
2022/01/15 07:34:08;;;;;;;31.80;8.67;;;1.00;99.90;;;;;;5134086;27;20402;-75
2022/01/15 07:36:35;;;;;;;25.87;10.30;;;1.00;99.90;;;;;;5134695;27;20051;-75
2022/01/15 07:39:03;;;;;;;25.37;8.93;;;1.00;99.90;;;;;;5134361;27;20461;-76
2022/01/15 07:41:30;;;;;;;12.70;8.93;;;1.00;99.90;;;;;;5134785;27;20047;-74
2022/01/15 07:43:57;;;;;;;9.57;6.10;;;1.00;99.90;;;;;;5134087;27;20043;-75
2022/01/15 07:46:25;;;;;;;25.40;8.23;;;1.00;99.90;;;;;;5134511;27;20043;-76
2022/01/15 07:48:51;;;;;;;19.27;8.73;;;1.10;99.90;;;;;;5134447;27;20084;-74
2022/01/15 07:51:18;;;;;;;25.50;8.93;;;1.10;99.90;;;;;;5134593;27;20088;-74
2022/01/15 07:53:45;;;;;;;17.40;8.23;;;1.20;99.90;;;;;;5134454;27;20043;-75
2022/01/15 07:56:11;;;;;;;21.53;9.87;;;1.20;99.90;;;;;;5133792;27;20047;-74
2022/01/15 07:58:38;;;;;;;26.07;8.90;;;1.20;99.90;;;;;;5133994;27;20761;-74
2022/01/15 08:01:06;;;;;;;29.17;12.67;;;1.20;99.90;;;;;;5134237;27;20099;-78
2022/01/15 08:03:33;;;;;;;35.60;12.77;;;1.30;99.90;;;;;;5133860;27;20047;-75
2022/01/15 08:06:00;;;;;;;38.60;11.83;;;1.50;99.90;;;;;;5133192;27;20100;-75
2022/01/15 08:08:26;;;;;;;24.33;8.83;;;1.50;99.90;;;;;;5133979;27;20043;-74
2022/01/15 08:10:53;;;;;;;22.77;10.63;;;1.50;99.90;;;;;;5133762;27;20047;-75
2022/01/15 08:13:20;;;;;;;23.93;8.57;;;1.50;99.90;;;;;;5133761;27;20100;-74
2022/01/15 08:15:46;;;;;;;32.57;10.33;;;1.50;99.90;;;;;;5133301;27;20043;-74
2022/01/15 08:18:14;;;;;;;21.07;8.07;;;1.60;99.90;;;;;;5133721;27;20043;-75
2022/01/15 08:20:41;;;;;;;30.70;10.90;;;1.50;99.90;;;;;;5133559;27;20099;-75
2022/01/15 08:23:07;;;;;;;22.00;9.93;;;1.60;99.90;;;;;;5133832;27;20039;-74
2022/01/15 08:25:34;;;;;;;23.67;8.03;;;1.60;99.90;;;;;;5133232;27;20099;-74
2022/01/15 08:28:01;;;;;;;32.67;9.73;;;1.70;99.90;;;;;;5133624;27;20092;-76
2022/01/15 08:30:28;;;;;;;23.93;9.47;;;1.70;99.90;;;;;;5133715;27;20048;-75
2022/01/15 08:32:55;;;;;;;28.40;9.13;;;1.80;99.90;;;;;;5133413;27;20043;-73
2022/01/15 08:35:23;;;;;;;24.13;10.63;;;1.80;99.90;;;;;;5137927;27;20043;-75
2022/01/15 08:37:50;;;;;;;28.23;10.60;;;1.80;99.90;;;;;;5133407;27;20043;-75
2022/01/15 08:40:20;;;;;;;25.17;12.33;;;1.80;99.90;;;;;;5133293;27;20054;-74
2022/01/15 08:42:47;;;;;;;34.87;15.53;;;1.80;99.90;;;;;;5133593;27;20097;-75
2022/01/15 08:45:15;;;;;;;28.47;12.03;;;1.80;99.90;;;;;;5132556;27;20043;-76
2022/01/15 08:47:42;;;;;;;31.30;11.20;;;1.80;99.90;;;;;;5133007;27;20039;-76
2022/01/15 08:50:11;;;;;;;19.90;8.37;;;1.80;99.90;;;;;;5133164;27;20047;-74
2022/01/15 08:52:39;;;;;;;23.97;10.33;;;1.80;99.90;;;;;;5133042;27;20043;-74
2022/01/15 08:55:07;;;;;;;22.63;11.33;;;1.90;99.90;;;;;;5132504;27;20058;-75
2022/01/15 08:57:34;;;;;;;33.77;11.57;;;1.90;99.90;;;;;;5133028;27;20096;-75
2022/01/15 09:00:04;;;;;;;28.53;10.77;;;2.00;99.90;;;;;;5132922;27;20077;-75
2022/01/15 09:02:31;;;;;;;27.73;10.73;;;2.00;99.90;;;;;;5133036;27;20047;-75
2022/01/15 09:04:57;;;;;;;23.07;11.90;;;2.00;99.90;;;;;;5132358;27;20050;-76
2022/01/15 09:07:24;;;;;;;25.13;9.90;;;2.00;99.90;;;;;;5132898;27;20043;-75
2022/01/15 09:09:52;;;;;;;31.40;11.63;;;2.00;99.90;;;;;;5132841;27;20535;-74
2022/01/15 09:12:22;;;;;;;31.30;10.97;;;2.00;99.90;;;;;;5132858;27;20043;-76
2022/01/15 09:14:52;;;;;;;17.87;10.17;;;2.10;99.90;;;;;;5131912;27;20092;-75
2022/01/15 09:17:19;;;;;;;20.03;9.80;;;2.10;99.90;;;;;;5132996;27;20047;-76
2022/01/15 09:19:45;;;;;;;29.90;9.80;;;2.20;99.90;;;;;;5132414;27;20402;-75
2022/01/15 09:22:12;;;;;;;24.83;9.80;;;2.20;99.90;;;;;;5132928;27;20047;-74
2022/01/15 09:24:39;;;;;;;22.17;9.23;;;2.30;99.90;;;;;;5132172;27;20043;-75
2022/01/15 09:32:32;;;;;;;22.77;6.30;;;2.50;99.90;;;;;;5132456;28;20415;-73
2022/01/15 09:34:59;;;;;;;18.00;6.37;;;2.50;99.90;;;;;;5131592;27;20068;-77
2022/01/15 09:37:25;;;;;;;16.63;6.60;;;2.50;99.90;;;;;;5132375;28;20115;-74
2022/01/15 09:39:52;;;;;;;14.93;6.13;;;2.50;99.90;;;;;;5132836;27;20077;-74
2022/01/15 09:42:22;;;;;;;19.87;6.77;;;2.50;99.90;;;;;;5132638;28;20552;-77
2022/01/15 09:44:49;;;;;;;12.63;6.20;;;2.60;99.90;;;;;;5133082;27;20054;-77
2022/01/15 09:47:17;;;;;;;22.90;7.93;;;2.60;99.90;;;;;;5134125;27;20051;-76
2022/01/15 09:49:45;;;;;;;17.70;7.00;;;2.70;99.90;;;;;;5132432;28;20100;-76
2022/01/15 09:52:12;;;;;;;18.87;9.30;;;2.70;99.90;;;;;;5132408;27;20479;-77
2022/01/15 09:54:40;;;;;;;31.67;14.40;;;2.60;99.90;;;;;;5132337;28;20096;-77
2022/01/15 09:57:07;;;;;;;25.43;14.40;;;2.60;99.90;;;;;;5132621;27;20047;-76
2022/01/15 09:59:35;;;;;;;10.27;5.97;;;2.60;99.90;;;;;;5132839;27;20043;-76
2022/01/15 10:02:04;;;;;;;18.37;8.00;;;2.60;99.90;;;;;;5132356;28;20070;-74
2022/01/15 10:04:32;;;;;;;25.07;6.03;;;2.50;99.90;;;;;;5132530;28;20073;-75
2022/01/15 10:07:13;;;;;;;15.87;6.67;;;2.50;99.90;;;;;;5132544;27;20154;-74
2022/01/15 10:09:42;;;;;;;11.80;7.25;;;2.60;99.90;;;;;;5134075;28;20480;-78
2022/01/15 10:12:09;;;;;;;16.10;6.63;;;2.60;99.90;;;;;;5133535;27;20138;-78
2022/01/15 10:17:25;;;;;;;12.83;6.87;;;2.70;99.90;;;;;;5133713;27;20043;-78
2022/01/15 10:19:53;;;;;;;14.73;5.63;;;2.60;99.90;;;;;;5133940;28;20043;-80
2022/01/15 10:22:22;;;;;;;17.43;6.73;;;2.50;99.90;;;;;;5134441;28;20096;-78
2022/01/15 10:24:57;;;;;;;23.77;9.30;;;2.40;99.90;;;;;;5132864;27;20047;-77
2022/01/15 10:27:27;;;;;;;15.23;7.00;;;2.30;99.90;;;;;;5133484;28;20053;-77
2022/01/15 10:30:05;;;;;;;18.87;7.80;;;2.40;99.90;;;;;;5133686;28;20111;-76
2022/01/15 10:32:33;;;;;;;15.77;8.07;;;2.40;99.90;;;;;;5133331;28;20491;-77
2022/01/15 10:35:01;;;;;;;18.87;8.03;;;2.70;99.90;;;;;;5134686;27;20092;-77
2022/01/15 10:37:34;;;;;;;26.17;12.10;;;2.80;99.90;;;;;;5137952;27;20069;-76
2022/01/15 10:40:05;;;;;;;28.57;13.43;;;2.90;99.90;;;;;;5136383;27;20082;-76
2022/01/15 10:42:34;;;;;;;18.05;6.93;;;2.90;99.90;;;;;;5136868;27;20155;-76
2022/01/15 10:45:09;;;;;;;20.27;7.53;;;3.00;99.90;;;;;;5136012;27;20055;-77
2022/01/15 10:47:42;;;;;;;15.03;7.17;;;2.90;99.90;;;;;;5136818;27;20043;-77
2022/01/15 10:50:10;;;;;;;13.10;7.10;;;3.00;99.90;;;;;;5136619;27;20047;-77
2022/01/15 10:52:37;;;;;;;16.27;7.07;;;2.70;99.90;;;;;;5136642;27;20054;-77
2022/01/15 10:55:11;;;;;;;9.03;5.07;;;2.70;99.90;;;;;;5136993;27;20100;-80
2022/01/15 10:57:43;;;;;;;22.70;7.07;;;2.70;99.90;;;;;;5137018;27;20498;-78
2022/01/15 11:00:15;;;;;;;15.50;5.65;;;2.70;99.90;;;;;;5139222;27;20074;-82
2022/01/15 11:02:43;;;;;;;11.75;5.35;;;2.70;99.90;;;;;;5139292;27;20096;-77
2022/01/15 11:05:31;;;;;;;18.77;6.17;;;2.90;99.90;;;;;;5136841;27;20059;-78
2022/01/15 11:08:09;;;;;;;16.63;6.10;;;2.90;99.90;;;;;;5136950;27;20058;-79
2022/01/15 11:10:40;;;;;;;14.40;4.87;;;2.90;99.90;;;;;;5136779;27;20051;-77
2022/01/15 11:13:10;;;;;;;9.55;5.97;;;3.00;99.90;;;;;;5138723;27;20046;-76
2022/01/15 11:15:39;;;;;;;12.67;6.93;;;3.10;99.90;;;;;;5137086;27;20192;-77
2022/01/15 11:18:06;;;;;;;12.57;6.13;;;3.10;99.90;;;;;;5137651;27;20039;-77
2022/01/15 11:20:34;;;;;;;10.83;6.03;;;3.10;99.90;;;;;;5136350;27;20047;-78
2022/01/15 11:23:03;;;;;;;8.80;6.23;;;3.00;99.90;;;;;;5136080;27;20050;-78
2022/01/15 11:25:30;;;;;;;15.20;6.20;;;3.00;99.90;;;;;;5135401;27;20047;-77
2022/01/15 11:27:58;;;;;;;17.97;8.47;;;3.00;99.90;;;;;;5135556;27;20047;-78
2022/01/15 11:30:27;;;;;;;18.47;8.63;;;3.00;99.90;;;;;;5135971;27;20058;-78
2022/01/15 11:32:58;;;;;;;19.23;8.40;;;3.00;99.90;;;;;;5137385;27;20043;-78
2022/01/15 11:35:38;;;;;;;12.47;6.80;;;3.00;99.90;;;;;;5135957;27;20104;-77
2022/01/15 11:38:06;;;;;;;15.33;7.57;;;2.90;99.90;;;;;;5135746;27;20529;-75
2022/01/15 11:40:39;;;;;;;20.37;7.67;;;3.00;99.90;;;;;;5136000;27;20445;-76
2022/01/15 11:43:37;;;;;;;25.53;8.30;;;3.00;99.90;;;;;;5136088;27;20095;-76
2022/01/15 11:46:05;;;;;;;14.63;7.90;;;3.00;99.90;;;;;;5134823;27;20507;-76
2022/01/15 11:48:35;;;;;;;19.47;7.83;;;3.10;99.90;;;;;;5135838;27;20088;-79
2022/01/15 11:51:25;;;;;;;15.43;9.03;;;2.90;99.90;;;;;;5135348;27;20047;-79
2022/01/15 11:53:54;;;;;;;13.67;7.47;;;2.90;99.90;;;;;;5136433;27;20047;-79
2022/01/15 11:56:23;;;;;;;16.27;8.53;;;2.90;99.90;;;;;;5134326;27;20043;-80
2022/01/15 11:58:50;;;;;;;26.43;13.07;;;2.90;99.90;;;;;;5135150;27;20088;-79
2022/01/15 12:01:38;;;;;;;33.17;10.60;;;3.00;99.90;;;;;;5135528;27;20054;-78
2022/01/15 12:04:26;;;;;;;18.60;9.43;;;3.00;99.90;;;;;;5135445;27;20089;-77
2022/01/15 12:07:19;;;;;;;22.77;6.73;;;2.80;99.90;;;;;;5135834;27;20100;-78
2022/01/15 12:09:47;;;;;;;10.43;7.70;;;2.80;99.90;;;;;;5135595;27;20051;-77
2022/01/15 12:12:44;;;;;;;12.80;6.33;;;2.60;99.90;;;;;;5134619;27;20479;-76
2022/01/15 12:15:16;;;;;;;18.40;6.87;;;2.60;99.90;;;;;;5134615;27;20111;-78
2022/01/15 12:17:46;;;;;;;12.73;8.27;;;2.60;99.90;;;;;;5135279;27;20081;-76
2022/01/15 12:20:36;;;;;;;12.07;7.67;;;2.60;99.90;;;;;;5134251;27;20146;-77
2022/01/15 12:23:22;;;;;;;19.17;6.87;;;2.50;99.90;;;;;;5134289;27;20068;-77
2022/01/15 12:25:50;;;;;;;15.13;8.77;;;2.60;99.90;;;;;;5133535;27;20057;-76
2022/01/15 12:28:18;;;;;;;25.40;9.07;;;2.70;99.90;;;;;;5134621;27;20050;-77
2022/01/15 12:30:47;;;;;;;12.67;7.37;;;2.80;99.90;;;;;;5134360;27;20051;-77
2022/01/15 12:33:16;;;;;;;24.90;7.37;;;2.80;99.90;;;;;;5134323;27;20047;-75
2022/01/15 12:35:47;;;;;;;17.77;7.63;;;2.60;99.90;;;;;;5134300;27;20449;-77
2022/01/15 12:38:16;;;;;;;15.88;6.70;;;2.50;99.90;;;;;;5134789;27;20129;-77
2022/01/15 12:40:44;;;;;;;12.53;6.13;;;2.50;99.90;;;;;;5134545;27;20454;-77
2022/01/15 12:43:16;;;;;;;10.37;6.73;;;2.40;99.90;;;;;;5134131;27;20047;-77
2022/01/15 12:45:45;;;;;;;14.85;6.90;;;2.30;99.90;;;;;;5133888;27;20039;-79
2022/01/15 12:48:16;;;;;;;21.10;13.13;;;2.40;99.90;;;;;;5134249;27;20051;-79
2022/01/15 12:50:46;;;;;;;15.75;10.93;;;2.50;99.90;;;;;;5134005;27;20044;-79
2022/01/15 12:53:15;;;;;;;13.93;9.00;;;2.60;99.90;;;;;;5133755;27;20073;-80
2022/01/15 12:55:42;;;;;;;15.17;8.80;;;2.80;99.90;;;;;;5133635;27;20491;-79
2022/01/15 12:58:10;;;;;;;9.73;6.70;;;2.80;99.90;;;;;;5133614;27;20384;-77
2022/01/15 13:00:39;;;;;;;14.17;8.37;;;2.80;99.90;;;;;;5135037;27;20174;-77
2022/01/15 13:03:07;;;;;;;13.70;7.87;;;2.70;99.90;;;;;;5135360;27;20388;-79
2022/01/15 13:05:36;;;;;;;15.07;8.60;;;2.80;99.90;;;;;;5133843;27;20046;-77
2022/01/15 13:08:06;;;;;;;23.10;8.83;;;2.80;99.90;;;;;;5134107;27;20043;-78
2022/01/15 13:10:46;;;;;;;15.67;6.57;;;2.80;99.90;;;;;;5134237;27;20050;-78
2022/01/15 13:13:19;;;;;;;17.70;8.57;;;2.70;99.90;;;;;;5134299;27;20039;-77